Accueil
METAR-TAF:

METAR-TAF

Aéroports :

Woodvale, Angleterre

latitude: 53-34-54N, longitude: 003-03-20W, altitude: 11 m

Observation

Le bulletin a été fait il y a 49 minutes, à 07:50 UTC
Vent 7 kt de sud-est
Température 1°C
Humidité 86%
Pression 1021 hPa
Visibilité 10 km ou plus
pas de nuages en-dessous de 1500 mètres et pas de cumulonimbus.

METAR: EGOW 140750Z 14007KT CAVOK 01/M01 Q1021 BLU

Heure: 08:39 (08:39 UTC)

Prévision

Le bulletin a été fait il y a 18 heures et 44 minutes, à 13:55 UTC
Prévision valable du 13 à 15 UTC au 13 à 18 UTC
Vent 14 kt de est/sud-est
Visibilité 10 km ou plus
Quelques nuages à une hauteur de 2500 ft
Probabilité 30% :
Temporairement
du 13 à 15 UTC au 13 à 16 UTC
Vent 15 kt de sud-est avec des rafales jusqu'à 25 kt

TAF: EGOW 131355Z 1315/1318 12014KT 9999 FEW025 PROB30 TEMPO 1315/1316 13015G25KT

Observations et prévisions météorologiques de plus de 4000 aéroports (messages METAR et TAF).

Les stations disponibles sont représentées par des disques jaunes et rouges sur la carte.

Passer la souris dessus pour voir le nom de la station.

Cliquer dessus pour voir les observations et prévisions météorologiques.

Pour changer de carte: cliquez sur les boutons verts avec une croix noire pour zoomer, sur le bouton vert avec un tiret pour effectuer un zoom arrière, ou sur les flèches vertes pour les cartes adjacentes.


METAR-TAF: